Rutland, VT

7:55 PM EDT on August 20, 2017 (GMT -0400)
Rutland State

Weather History for KRUT - November, 2010

Change the Weather History Date:

Wednesday, November 17, 2010

  Actual Average Record
Temperature  
Mean Temperature 46 °F -  
Max Temperature 51 °F - 66 °F (2006)
Min Temperature 42 °F - 11 °F (1972)
Degree Days  
Heating Degree Days 18    
Month to date heating degree days  
Since 1 July heating degree days  
Cooling Degree Days 0    
Month to date cooling degree days  
Year to date cooling degree days  
Moisture  
Dew Point 40 °F    
Average Humidity 77    
Maximum Humidity 93    
Minimum Humidity 53    
Precipitation  
Precipitation 0.39 in - 1.27 in (2002)
Month to date precipitation  
Year to date precipitation  
Sea Level Pressure  
Sea Level Pressure 29.51 in    
Wind  
Wind Speed 16 mph (South)    
Max Wind Speed 28 mph    
Max Gust Speed 38 mph    
Visibility 10 miles    
Events      
T = Trace of Precipitation, MM = Missing Value Source: NWS Daily Summary

Daily Weather History Graph

Daily Weather History Graph

Search for Another Location

Airport or City:

Trip Planner

Search our weather history database for the weather conditions in past years. The results will help you decide how hot, cold, wet, or windy it might be!

Date:

Astronomy

Nov. 17, 2010 Rise Set
Actual Time 6:48 AM EST 4:25 PM EST
Civil Twilight 6:17 AM EST 4:56 PM EST
Nautical Twilight 5:42 AM EST 5:30 PM EST
Astronomical Twilight 5:08 AM EST 6:04 PM EST
Moon 2:00 PM EST (11/17) 2:38 AM EST (11/17)
Length of Visible Light 10h 39m
Length of Day
9h 36m
Waxing Gibbous, 85% of the Moon is Illuminated
Nov 17
Waxing Gibbous
Nov 21
Full
Nov 28
Last Quarter
Dec 5
New
Dec 13
First Quarter

Hourly Weather History & Observations

Time (EST) Temp. Windchill Dew Point Humidity Pressure Visibility Wind Dir Wind Speed Gust Speed Precip Events Conditions
12:15 AM 48.2 °F - 42.8 °F 82% 29.81 in 10.0 mi SE 23.0 mph 28.8 mph N/A   Overcast
12:35 AM 48.2 °F - 42.8 °F 82% 29.81 in 10.0 mi SSE 12.7 mph 21.9 mph N/A   Overcast
12:55 AM 46.4 °F 40.1 °F 42.8 °F 87% 29.77 in 10.0 mi SSE 15.0 mph 26.5 mph N/A   Overcast
1:15 AM 48.2 °F - 41.0 °F 76% 29.75 in 10.0 mi SE 19.6 mph 36.8 mph N/A   Overcast
1:35 AM 48.2 °F - 41.0 °F 76% 29.73 in 10.0 mi SE 25.3 mph 35.7 mph N/A   Overcast
1:55 AM 46.4 °F 39.2 °F 41.0 °F 81% 29.71 in 10.0 mi SSE 18.4 mph 33.4 mph N/A   Overcast
2:15 AM 46.4 °F 37.9 °F 41.0 °F 81% 29.67 in 10.0 mi SE 25.3 mph 33.4 mph 0.01 in   Overcast
2:35 AM 46.4 °F 38.7 °F 42.8 °F 87% 29.65 in 10.0 mi SE 20.7 mph 34.5 mph 0.01 in   Overcast
2:55 AM 46.4 °F 39.0 °F 42.8 °F 87% 29.65 in 9.0 mi SSE 19.6 mph 27.6 mph 0.03 in   Overcast
3:15 AM 46.4 °F 38.1 °F 42.8 °F 87% 29.63 in 9.0 mi SE 24.2 mph 33.4 mph N/A   Overcast
3:35 AM 46.4 °F 37.9 °F 42.8 °F 87% 29.59 in 10.0 mi SE 25.3 mph 33.4 mph 0.01 in   Overcast
3:55 AM 46.4 °F 38.1 °F 42.8 °F 87% 29.56 in 10.0 mi ESE 24.2 mph 38.0 mph 0.04 in   Overcast
4:15 AM 46.4 °F 37.7 °F 42.8 °F 87% 29.56 in 10.0 mi SE 26.5 mph 35.7 mph 0.01 in   Overcast
4:35 AM 46.4 °F 38.7 °F 42.8 °F 87% 29.55 in 7.0 mi SE 20.7 mph 31.1 mph 0.03 in   Overcast
4:55 AM 46.4 °F 39.5 °F 42.8 °F 87% 29.55 in 9.0 mi SE 17.3 mph 24.2 mph 0.05 in   Overcast
5:15 AM 46.4 °F 41.1 °F 42.8 °F 87% 29.57 in 10.0 mi SSW 11.5 mph 18.4 mph 0.03 in   Overcast
5:35 AM 46.4 °F 40.4 °F 42.8 °F 87% 29.55 in 9.0 mi SSE 13.8 mph 21.9 mph 0.09 in   Overcast
6:15 AM 46.4 °F 38.1 °F 42.8 °F 87% 29.44 in 10.0 mi ESE 24.2 mph 33.4 mph N/A   Overcast
6:35 AM 46.4 °F 37.9 °F 41.0 °F 81% 29.52 in 10.0 mi SW 25.3 mph 36.8 mph N/A   Overcast
6:55 AM 48.2 °F - 44.6 °F 87% 29.55 in 10.0 mi SE 10.4 mph 20.7 mph N/A   Overcast
7:15 AM 46.4 °F 42.4 °F 42.8 °F 87% 29.53 in 10.0 mi SE 8.1 mph - N/A   Overcast
7:35 AM 46.4 °F 42.4 °F 44.6 °F 93% 29.50 in 10.0 mi ESE 8.1 mph - N/A   Mostly Cloudy
7:55 AM 46.4 °F 41.5 °F 44.6 °F 93% 29.48 in 10.0 mi SE 10.4 mph - 0.04 in   Overcast
8:15 AM 46.4 °F 42.9 °F 44.6 °F 93% 29.43 in 10.0 mi SE 6.9 mph - 0.01 in   Overcast
8:35 AM 48.2 °F - 42.8 °F 82% 29.43 in 10.0 mi WSW 10.4 mph - 0.01 in   Overcast
8:55 AM 48.2 °F - 44.6 °F 87% 29.43 in 10.0 mi SSE 5.8 mph - 0.01 in   Overcast
9:15 AM 48.2 °F - 42.8 °F 82% 29.44 in 10.0 mi SE 13.8 mph - N/A   Overcast
9:35 AM 48.2 °F - 44.6 °F 87% 29.42 in 10.0 mi SSE 6.9 mph - 0.01 in   Overcast
9:55 AM 50.0 °F - 44.6 °F 82% 29.41 in 10.0 mi SE 10.4 mph - 0.01 in   Scattered Clouds
10:15 AM 51.8 °F - 44.6 °F 76% 29.40 in 10.0 mi South 5.8 mph - N/A   Mostly Cloudy
10:35 AM 51.8 °F - 46.4 °F 82% 29.39 in 10.0 mi South 3.5 mph - N/A   Overcast
10:55 AM 51.8 °F - 46.4 °F 82% 29.38 in 10.0 mi SE 11.5 mph - N/A   Overcast
11:15 AM 51.8 °F - 46.4 °F 82% 29.37 in 10.0 mi SE 9.2 mph - N/A   Overcast
11:35 AM 51.8 °F - 46.4 °F 82% 29.37 in 9.0 mi SSE 6.9 mph - 0.04 in   Overcast
11:55 AM 50.0 °F - 46.4 °F 87% 29.37 in 10.0 mi South 9.2 mph 16.1 mph 0.11 in   Overcast
12:15 PM 50.0 °F - 46.4 °F 87% 29.36 in 10.0 mi South 8.1 mph - N/A   Mostly Cloudy
12:35 PM 50.0 °F - 44.6 °F 82% 29.36 in 9.0 mi SSW 11.5 mph 16.1 mph N/A   Overcast
12:55 PM 51.8 °F - 44.6 °F 76% 29.37 in 10.0 mi WSW 15.0 mph 24.2 mph N/A   Overcast
1:35 PM 51.8 °F - 41.0 °F 67% 29.38 in 10.0 mi SW 16.1 mph 27.6 mph N/A   Overcast
1:55 PM 51.8 °F - 41.0 °F 67% 29.39 in 10.0 mi SW 10.4 mph 18.4 mph N/A   Overcast
2:15 PM 51.8 °F - 41.0 °F 67% 29.39 in 10.0 mi SW 9.2 mph 18.4 mph N/A   Overcast
2:35 PM 51.8 °F - 41.0 °F 67% 29.40 in 10.0 mi SW 5.8 mph - N/A   Overcast
2:55 PM 51.8 °F - 39.2 °F 62% 29.41 in 10.0 mi SW 16.1 mph 21.9 mph N/A   Overcast
3:15 PM 50.0 °F - 37.4 °F 62% 29.42 in 10.0 mi SW 17.3 mph 27.6 mph N/A   Overcast
3:35 PM 48.2 °F - 37.4 °F 66% 29.43 in 10.0 mi SW 15.0 mph 23.0 mph N/A   Overcast
3:55 PM 48.2 °F - 37.4 °F 66% 29.44 in 10.0 mi WSW 17.3 mph 24.2 mph N/A   Overcast
4:15 PM 48.2 °F - 37.4 °F 66% 29.45 in 9.0 mi SW 27.6 mph 38.0 mph N/A   Overcast
4:35 PM 46.4 °F 40.1 °F 35.6 °F 66% 29.48 in 10.0 mi WSW 15.0 mph 26.5 mph N/A   Overcast
4:55 PM 46.4 °F 41.5 °F 33.8 °F 62% 29.49 in 10.0 mi WSW 10.4 mph 21.9 mph N/A   Overcast
5:15 PM 46.4 °F 39.5 °F 33.8 °F 62% 29.49 in 10.0 mi SW 17.3 mph 25.3 mph N/A   Overcast
5:35 PM 46.4 °F 41.5 °F 33.8 °F 62% 29.50 in 10.0 mi SW 10.4 mph 25.3 mph N/A   Overcast
5:55 PM 46.4 °F 40.1 °F 33.8 °F 62% 29.51 in 10.0 mi WSW 15.0 mph 21.9 mph N/A   Overcast
6:15 PM 44.6 °F 38.4 °F 33.8 °F 66% 29.51 in 10.0 mi SW 12.7 mph 20.7 mph N/A   Overcast
6:35 PM 44.6 °F 37.2 °F 33.8 °F 66% 29.51 in 10.0 mi WSW 17.3 mph 29.9 mph N/A   Overcast
6:55 PM 44.6 °F 36.6 °F 33.8 °F 66% 29.50 in 10.0 mi SW 19.6 mph 26.5 mph N/A   Overcast
7:15 PM 44.6 °F 38.8 °F 33.8 °F 66% 29.52 in 8.0 mi WSW 11.5 mph 32.2 mph N/A   Overcast
7:35 PM 42.8 °F 34.8 °F 35.6 °F 76% 29.52 in 8.0 mi WSW 17.3 mph 24.2 mph 0.01 in   Overcast
7:55 PM 42.8 °F 37.0 °F 33.8 °F 70% 29.54 in 10.0 mi WSW 10.4 mph 34.5 mph 0.01 in   Overcast
8:15 PM 42.8 °F 35.4 °F 33.8 °F 70% 29.55 in 10.0 mi West 15.0 mph 26.5 mph N/A   Overcast
8:35 PM 44.6 °F 38.4 °F 30.2 °F 57% 29.57 in 10.0 mi West 12.7 mph 21.9 mph N/A   Overcast
8:55 PM 44.6 °F 38.4 °F 30.2 °F 57% 29.58 in 10.0 mi WNW 12.7 mph 27.6 mph N/A   Overcast
9:15 PM 44.6 °F 37.2 °F 28.4 °F 53% 29.59 in 10.0 mi West 17.3 mph 32.2 mph N/A   Overcast
9:35 PM 42.8 °F 35.4 °F 28.4 °F 57% 29.62 in 10.0 mi WNW 15.0 mph 27.6 mph N/A   Overcast
9:55 PM 42.8 °F 35.1 °F 28.4 °F 57% 29.63 in 10.0 mi WNW 16.1 mph 26.5 mph N/A   Overcast
10:15 PM 42.8 °F 35.1 °F 28.4 °F 57% 29.64 in 10.0 mi WNW 16.1 mph 26.5 mph N/A   Overcast
10:35 PM 42.8 °F 35.4 °F 28.4 °F 57% 29.66 in 10.0 mi WNW 15.0 mph 31.1 mph N/A   Overcast
10:55 PM 42.8 °F 34.8 °F 28.4 °F 57% 29.67 in 10.0 mi West 17.3 mph 24.2 mph N/A   Overcast
11:15 PM 42.8 °F 37.0 °F 28.4 °F 57% 29.69 in 10.0 mi West 10.4 mph 19.6 mph N/A   Overcast
11:35 PM 42.8 °F 34.5 °F 28.4 °F 57% 29.70 in 10.0 mi West 18.4 mph 26.5 mph N/A   Overcast
11:55 PM 42.8 °F 35.8 °F 28.4 °F 57% 29.71 in 10.0 mi WNW 13.8 mph 19.6 mph N/A   Overcast